Airfield :
LOGIN :

Register | Disclaimer

   EN    FR    IT 

 










Legend :    VFR   Marginal VFR   IFR   Intensive IFR   Very Intensive IFR
Visi :
Ceiling :
>= 8 km
>= 3000ft
5 to 8 km
1000 to 3000 ft
1500m to 5 km
500 to 1000 ft
800 to 1500m
200 to 500 ft
< 800m
< 200 ft
Symbols :   Thunderstorms  Fog  Heavy snow  Heavy precipitations  Wind > 20 kt
SIGMETs :     Misc.  Thunderstorms  Icing  Turbulence  Mountain Waves  Volcanic Ashes






- Airport Elevation : 584 ft


LFPV - Villacoublay Vélizy

CURRENT METAR :
  • 272030Z AUTO 13004KT 9000 NSC 08/06 Q1015 NOSIG

EXPIRED METARs :
  • 272000Z AUTO 12005KT CAVOK 08/07 Q1015 NOSIG
  • 271930Z AUTO 12006KT 8000 NSC 08/07 Q1015 NOSIG
  • 271900Z AUTO 11005KT 7000 NSC 08/07 Q1015 NOSIG
  • 271830Z AUTO 11005KT 7000 NSC 09/07 Q1015 NOSIG
  • 271800Z AUTO 09006KT 7000 NSC 08/06 Q1015 NOSIG

TAF TAF LFPV
Valid from the 27 at 15:00 until the 28 at 15:00 UTC


271400Z 2715/2815 06005KT CAVOK TX10/2715Z TN05/2809Z
PROB40
TEMPO 2800/2810 3000 BR BKN004
PROB30
TEMPO 2800/2809 0500 FG VV///



MET'MAP, your aeronautical weather chart ! - Copyright ORBIFLY December 2007 - Disclaimer

ORBIFLY MET'MAP TEAM :

Programming & Development : Alexandra Zaïnal
Concept & original design : Baudouin d'Aumeries
Assistance for programming : Marc-Olivier Méhu
Technical & hardware support : Manuel Goepfert

Contact : metmap@orbifly.com




SOURCES & CREDITS :

   NOAA